createdAt,value
2023-02-19T00:01:28.256Z,116.70
2023-02-19T00:03:59.088Z,114.80
2023-02-19T00:06:27.759Z,112.70
2023-02-19T00:08:54.915Z,113.60
2023-02-19T00:11:26.116Z,110.00
2023-02-19T00:13:55.524Z,118.40
2023-02-19T00:16:27.790Z,111.90
2023-02-19T00:18:56.370Z,117.50
2023-02-19T00:21:23.943Z,117.90
2023-02-19T00:23:52.870Z,112.30
2023-02-19T00:26:19.712Z,117.30
2023-02-19T00:28:48.537Z,110.50
2023-02-19T00:31:22.902Z,124.00
2023-02-19T00:33:52.644Z,118.00
2023-02-19T00:36:20.188Z,116.00
2023-02-19T00:38:47.024Z,123.60
2023-02-19T00:41:21.730Z,125.40
2023-02-19T00:44:03.090Z,119.90
2023-02-19T00:46:35.844Z,114.50
2023-02-19T00:49:04.532Z,117.10
2023-02-19T00:51:34.979Z,116.00
2023-02-19T00:54:02.150Z,115.60
2023-02-19T00:56:28.908Z,119.50
2023-02-19T00:58:56.228Z,117.20
2023-02-19T01:01:23.520Z,113.20
2023-02-19T01:03:50.964Z,112.40
2023-02-19T01:06:19.908Z,106.60
2023-02-19T01:08:47.321Z,109.70
2023-02-19T01:11:14.818Z,116.60
2023-02-19T01:13:42.864Z,114.80
2023-02-19T01:16:19.194Z,117.80
2023-02-19T01:18:47.935Z,114.40
2023-02-19T01:21:20.183Z,114.40
2023-02-19T01:23:48.317Z,110.80
2023-02-19T01:26:19.925Z,116.60
2023-02-19T01:28:47.139Z,112.90
2023-02-19T01:31:17.938Z,123.50
2023-02-19T01:33:53.910Z,121.30
2023-02-19T01:36:21.256Z,113.70
2023-02-19T01:38:48.712Z,115.30
2023-02-19T01:41:18.381Z,113.40
2023-02-19T01:44:15.917Z,113.50
2023-02-19T01:46:43.864Z,111.60
2023-02-19T01:49:15.863Z,110.50
2023-02-19T01:51:47.583Z,113.00
2023-02-19T01:54:18.060Z,112.90
2023-02-19T01:56:47.758Z,116.20
2023-02-19T01:59:15.354Z,111.70
2023-02-19T02:01:42.367Z,111.00
2023-02-19T02:04:13.332Z,109.70
2023-02-19T02:06:55.973Z,114.60
2023-02-19T02:09:55.953Z,106.00
2023-02-19T02:12:22.657Z,106.90
2023-02-19T02:14:49.382Z,110.90
2023-02-19T02:17:25.267Z,109.70
2023-02-19T02:20:26.325Z,106.00
2023-02-19T02:23:21.549Z,114.30
2023-02-19T02:26:36.385Z,104.60
2023-02-19T02:29:03.211Z,108.80
2023-02-19T02:31:43.496Z,109.20
2023-02-19T02:34:29.907Z,115.80
2023-02-19T02:36:57.542Z,116.00
2023-02-19T02:39:27.433Z,106.20
2023-02-19T02:42:17.084Z,117.60
2023-02-19T02:47:52.899Z,116.50
2023-02-19T02:50:26.270Z,110.40
2023-02-19T02:53:18.465Z,117.20
2023-02-19T02:55:49.760Z,118.40
2023-02-19T02:58:18.514Z,120.90
2023-02-19T03:01:10.471Z,113.30
2023-02-19T03:03:40.088Z,118.70
2023-02-19T03:06:09.476Z,120.00
2023-02-19T03:08:40.758Z,121.70
2023-02-19T03:11:30.629Z,108.90
2023-02-19T03:14:26.276Z,116.50
2023-02-19T03:17:18.827Z,115.30
2023-02-19T03:19:50.104Z,119.50
2023-02-19T03:22:25.981Z,115.90
2023-02-19T03:25:26.463Z,111.20
2023-02-19T03:27:57.696Z,115.70
2023-02-19T03:30:31.633Z,117.60
2023-02-19T03:33:08.269Z,125.80
2023-02-19T03:35:40.297Z,118.20
2023-02-19T03:38:18.797Z,121.50
2023-02-19T03:41:05.399Z,114.20
2023-02-19T03:43:32.775Z,111.10
2023-02-19T03:46:12.014Z,109.00
2023-02-19T03:48:48.909Z,108.40
2023-02-19T03:51:28.706Z,113.00
2023-02-19T03:54:20.446Z,112.70
2023-02-19T03:56:54.754Z,120.10
2023-02-19T03:59:55.992Z,118.50
2023-02-19T04:03:07.851Z,115.80
2023-02-19T04:05:41.299Z,113.70
2023-02-19T04:08:17.357Z,112.10
2023-02-19T04:10:50.071Z,108.40
2023-02-19T04:13:30.472Z,110.20
2023-02-19T04:16:04.762Z,111.60
2023-02-19T04:18:34.473Z,113.90
2023-02-19T04:21:03.731Z,119.10
2023-02-19T04:23:33.046Z,119.90
2023-02-19T04:26:01.411Z,118.60
2023-02-19T04:28:29.349Z,119.60
2023-02-19T04:30:56.196Z,116.90
2023-02-19T04:33:22.959Z,118.40
2023-02-19T04:35:49.708Z,115.10
2023-02-19T04:38:16.395Z,113.20
2023-02-19T04:40:43.138Z,119.60
2023-02-19T04:43:09.897Z,117.50
2023-02-19T04:45:39.718Z,111.00
2023-02-19T04:48:06.462Z,110.80
2023-02-19T04:50:33.300Z,126.30
2023-02-19T04:53:00.038Z,116.20
2023-02-19T04:55:26.724Z,116.60
2023-02-19T04:57:53.422Z,120.40
2023-02-19T05:00:20.357Z,124.30
2023-02-19T05:02:47.111Z,118.10
2023-02-19T05:05:14.157Z,119.00
2023-02-19T05:07:40.834Z,118.70
2023-02-19T05:10:07.941Z,125.40
2023-02-19T05:12:34.656Z,122.40
2023-02-19T05:15:01.340Z,116.10
2023-02-19T05:19:54.531Z,116.40
2023-02-19T05:22:21.285Z,123.00
2023-02-19T05:24:47.936Z,115.80
2023-02-19T05:27:14.630Z,123.10
2023-02-19T05:29:41.381Z,121.40
2023-02-19T05:32:08.082Z,119.00
2023-02-19T05:34:34.730Z,121.30
2023-02-19T05:39:28.104Z,127.30
2023-02-19T05:41:54.814Z,126.20
2023-02-19T05:44:21.518Z,127.20
2023-02-19T05:46:48.259Z,118.90
2023-02-19T05:49:14.995Z,112.00
2023-02-19T05:51:41.616Z,112.50
2023-02-19T05:56:40.324Z,118.50
2023-02-19T05:59:08.534Z,116.40
2023-02-19T06:01:35.682Z,117.00
2023-02-19T06:04:02.830Z,120.50
2023-02-19T06:06:29.969Z,114.70
2023-02-19T06:08:58.769Z,123.90
2023-02-19T06:11:25.724Z,119.10
2023-02-19T06:13:52.447Z,119.20
2023-02-19T06:16:19.771Z,122.30
2023-02-19T06:18:46.752Z,126.60
2023-02-19T06:21:14.932Z,114.40
2023-02-19T06:23:42.287Z,129.50
2023-02-19T06:26:27.186Z,126.70
2023-02-19T06:28:54.259Z,125.70
2023-02-19T06:31:22.840Z,121.00
2023-02-19T06:33:50.941Z,122.00
2023-02-19T06:36:20.451Z,118.80
2023-02-19T06:38:47.817Z,120.20
2023-02-19T06:41:14.914Z,119.60
2023-02-19T06:43:42.947Z,120.10
2023-02-19T06:46:12.050Z,117.10
2023-02-19T06:48:40.887Z,107.80
2023-02-19T06:51:08.405Z,110.70
2023-02-19T06:53:35.401Z,105.80
2023-02-19T06:56:05.710Z,110.40
2023-02-19T06:58:36.506Z,120.30
2023-02-19T07:01:03.234Z,114.20
2023-02-19T07:03:30.007Z,120.60
2023-02-19T07:05:59.803Z,116.60
2023-02-19T07:08:28.571Z,117.90
2023-02-19T07:10:58.534Z,121.70
2023-02-19T07:13:29.704Z,114.20
2023-02-19T07:16:01.920Z,114.10
2023-02-19T07:18:30.419Z,124.40
2023-02-19T07:21:09.170Z,127.20
2023-02-19T07:23:36.534Z,124.20
2023-02-19T07:26:04.282Z,128.00
2023-02-19T07:28:31.150Z,127.90
2023-02-19T07:31:02.759Z,137.00
2023-02-19T07:33:30.167Z,127.40
2023-02-19T07:35:57.711Z,121.20
2023-02-19T07:38:26.307Z,130.10
2023-02-19T07:40:57.614Z,120.70
2023-02-19T07:43:25.785Z,115.50
2023-02-19T07:45:52.809Z,124.00
2023-02-19T07:48:20.515Z,126.20
2023-02-19T07:50:54.993Z,122.70
2023-02-19T07:53:22.618Z,131.30
2023-02-19T07:55:49.819Z,126.30
2023-02-19T07:58:17.038Z,130.00
2023-02-19T08:00:43.853Z,129.40
2023-02-19T08:03:11.410Z,136.40
2023-02-19T08:05:40.174Z,137.60
2023-02-19T08:08:12.065Z,132.20
2023-02-19T08:10:57.950Z,138.40
2023-02-19T08:13:26.648Z,136.10
2023-02-19T08:16:20.017Z,134.10
2023-02-19T08:18:49.463Z,136.70
2023-02-19T08:21:18.410Z,141.40
2023-02-19T08:23:46.615Z,136.60
2023-02-19T08:26:13.988Z,138.80
2023-02-19T08:28:41.374Z,147.30
2023-02-19T08:31:11.417Z,138.10
2023-02-19T08:33:38.760Z,140.80
2023-02-19T08:36:07.834Z,141.50
2023-02-19T08:38:36.031Z,141.20
2023-02-19T08:41:07.714Z,136.60
2023-02-19T08:43:34.808Z,134.30
2023-02-19T08:46:01.647Z,140.30
2023-02-19T08:48:28.999Z,139.30
2023-02-19T08:50:58.341Z,135.20
2023-02-19T08:53:26.149Z,134.90
2023-02-19T08:55:53.638Z,129.30
2023-02-19T08:58:20.472Z,135.70
2023-02-19T09:00:47.695Z,131.40
2023-02-19T09:03:14.643Z,135.80
2023-02-19T09:05:42.015Z,135.50
2023-02-19T09:08:09.279Z,135.50
2023-02-19T09:10:36.020Z,128.10
2023-02-19T09:13:02.979Z,135.10
2023-02-19T09:15:29.896Z,135.20
2023-02-19T09:17:57.217Z,129.50
2023-02-19T09:20:23.978Z,120.80
2023-02-19T09:22:50.821Z,123.80
2023-02-19T09:25:17.685Z,119.30
2023-02-19T09:27:44.404Z,118.10
2023-02-19T09:30:11.547Z,115.90
2023-02-19T09:32:38.458Z,109.20
2023-02-19T09:35:05.399Z,116.20
2023-02-19T09:37:34.021Z,111.90
2023-02-19T09:40:00.922Z,107.30
2023-02-19T09:42:31.568Z,113.40
2023-02-19T09:45:00.987Z,107.10
2023-02-19T09:47:31.403Z,109.70
2023-02-19T09:50:06.641Z,104.70
2023-02-19T09:52:36.931Z,113.40
2023-02-19T09:55:15.032Z,106.80
2023-02-19T09:57:43.717Z,107.20
2023-02-19T10:00:19.233Z,103.30
2023-02-19T10:02:46.062Z,106.00
2023-02-19T10:05:14.615Z,107.20
2023-02-19T10:07:47.936Z,110.30
2023-02-19T10:10:14.697Z,109.30
2023-02-19T10:12:47.672Z,103.20
2023-02-19T10:15:25.328Z,106.80
2023-02-19T10:17:52.120Z,104.10
2023-02-19T10:20:26.763Z,107.90
2023-02-19T10:23:06.129Z,104.80
2023-02-19T10:25:34.922Z,102.50
2023-02-19T10:28:02.707Z,101.10
2023-02-19T10:30:32.203Z,106.80
2023-02-19T10:33:10.211Z,110.70
2023-02-19T10:36:00.478Z,113.00
2023-02-19T10:38:40.516Z,110.50
2023-02-19T10:41:15.560Z,111.90
2023-02-19T10:43:51.105Z,108.50
2023-02-19T10:46:22.571Z,107.70
2023-02-19T10:49:04.988Z,120.50
2023-02-19T10:51:38.222Z,131.00
2023-02-19T10:54:07.139Z,126.30
2023-02-19T10:56:34.210Z,124.70
2023-02-19T10:59:19.322Z,127.60
2023-02-19T11:02:00.876Z,122.10
2023-02-19T11:04:34.033Z,111.60
2023-02-19T11:07:18.287Z,119.50
2023-02-19T11:09:49.714Z,113.90
2023-02-19T11:12:26.984Z,120.00
2023-02-19T11:14:54.503Z,116.10
2023-02-19T11:17:30.352Z,109.80
2023-02-19T11:20:00.252Z,109.20
2023-02-19T11:22:38.313Z,111.80
2023-02-19T11:25:06.968Z,110.00
2023-02-19T11:27:34.314Z,100.20
2023-02-19T11:30:22.742Z,105.20
2023-02-19T11:33:08.341Z,113.30
2023-02-19T11:35:35.044Z,108.40
2023-02-19T11:38:02.326Z,110.60
2023-02-19T11:40:40.692Z,116.50
2023-02-19T11:43:20.414Z,106.70
2023-02-19T11:46:07.192Z,100.50
2023-02-19T11:48:46.310Z,109.40
2023-02-19T11:51:39.103Z,106.70
2023-02-19T11:54:30.385Z,104.20
2023-02-19T12:00:02.480Z,105.10
2023-02-19T12:02:48.266Z,95.00
2023-02-19T12:05:19.688Z,102.30
2023-02-19T12:07:55.496Z,111.00
2023-02-19T12:10:47.817Z,104.30
2023-02-19T12:13:28.563Z,103.60
2023-02-19T12:16:18.241Z,105.70
2023-02-19T12:18:50.725Z,101.10
2023-02-19T12:23:56.614Z,103.30
2023-02-19T12:26:41.740Z,105.40
2023-02-19T12:29:14.359Z,103.50
2023-02-19T12:32:03.052Z,103.70
2023-02-19T12:34:29.906Z,96.80
2023-02-19T12:37:11.621Z,96.50
2023-02-19T12:39:46.030Z,100.80
2023-02-19T12:42:45.990Z,117.90
2023-02-19T12:45:30.006Z,103.70
2023-02-19T12:48:06.784Z,98.80
2023-02-19T12:50:36.517Z,110.80
2023-02-19T12:53:25.225Z,105.30
2023-02-19T12:55:52.924Z,102.30
2023-02-19T12:58:37.936Z,104.50
2023-02-19T13:01:07.577Z,100.30
2023-02-19T13:04:13.454Z,112.10
2023-02-19T13:06:45.664Z,115.30
2023-02-19T13:09:19.842Z,142.60
2023-02-19T13:11:53.428Z,148.10
2023-02-19T13:14:34.298Z,110.00
2023-02-19T13:17:11.433Z,122.50
2023-02-19T13:19:38.695Z,106.00
2023-02-19T13:22:37.042Z,120.10
2023-02-19T13:25:06.898Z,92.40
2023-02-19T13:27:52.032Z,95.00
2023-02-19T13:30:43.349Z,104.30
2023-02-19T13:33:33.217Z,123.50
2023-02-19T13:36:28.442Z,110.30
2023-02-19T13:38:57.450Z,100.00
2023-02-19T13:41:39.474Z,96.40
2023-02-19T13:44:16.496Z,115.50
2023-02-19T13:46:45.724Z,105.90
2023-02-19T13:49:27.743Z,105.00
2023-02-19T13:51:56.202Z,93.30
2023-02-19T13:54:27.222Z,90.70
2023-02-19T13:57:29.430Z,90.50
2023-02-19T14:00:00.227Z,99.80
2023-02-19T14:02:31.361Z,89.50
2023-02-19T14:05:01.217Z,96.50
2023-02-19T14:07:27.934Z,95.00
2023-02-19T14:09:54.971Z,92.60
2023-02-19T14:12:33.409Z,96.40
2023-02-19T14:17:46.812Z,92.80
2023-02-19T14:20:16.408Z,95.60
2023-02-19T14:22:46.230Z,98.90
2023-02-19T14:25:31.392Z,103.60
2023-02-19T14:28:17.401Z,95.30
2023-02-19T14:31:01.266Z,103.30
2023-02-19T14:33:35.829Z,96.20
2023-02-19T14:36:19.083Z,96.00
2023-02-19T14:38:52.078Z,100.30
2023-02-19T14:41:20.481Z,108.30
2023-02-19T14:43:50.732Z,105.50
2023-02-19T14:46:31.812Z,100.20
2023-02-19T14:49:08.112Z,100.80
2023-02-19T14:51:40.391Z,105.70
2023-02-19T14:54:17.588Z,110.90
2023-02-19T14:56:52.707Z,107.80
2023-02-19T14:59:27.417Z,104.10
2023-02-19T15:02:13.761Z,105.20
2023-02-19T15:04:40.704Z,103.20
2023-02-19T15:07:13.437Z,101.80
2023-02-19T15:09:44.990Z,109.60
2023-02-19T15:12:21.843Z,106.00
2023-02-19T15:14:51.141Z,102.10
2023-02-19T15:17:27.244Z,104.30
2023-02-19T15:19:55.715Z,106.00
2023-02-19T15:22:26.081Z,103.10
2023-02-19T15:24:52.831Z,111.20
2023-02-19T15:27:24.741Z,114.90
2023-02-19T15:29:53.739Z,105.10
2023-02-19T15:32:23.677Z,111.10
2023-02-19T15:34:58.732Z,110.50
2023-02-19T15:37:28.900Z,111.70
2023-02-19T15:39:57.825Z,110.90
2023-02-19T15:42:32.403Z,108.90
2023-02-19T15:45:13.791Z,124.30
2023-02-19T15:47:50.203Z,122.90
2023-02-19T15:50:34.641Z,120.40
2023-02-19T15:53:07.391Z,118.90
2023-02-19T15:55:43.765Z,109.60
2023-02-19T15:58:19.606Z,111.90
2023-02-19T16:00:55.986Z,104.20
2023-02-19T16:03:25.037Z,102.90
2023-02-19T16:06:18.200Z,103.00
2023-02-19T16:09:02.108Z,103.80
2023-02-19T16:11:30.996Z,99.00
2023-02-19T16:14:34.853Z,106.40
2023-02-19T16:17:15.633Z,99.00
2023-02-19T16:20:01.878Z,105.30
2023-02-19T16:22:31.461Z,99.50
2023-02-19T16:25:05.057Z,101.00
2023-02-19T16:27:31.926Z,102.70
2023-02-19T16:30:01.469Z,103.20
2023-02-19T16:32:28.297Z,111.20
2023-02-19T16:34:55.055Z,103.00
2023-02-19T16:37:30.571Z,105.40
2023-02-19T16:40:09.459Z,117.00
2023-02-19T16:42:38.165Z,110.80
2023-02-19T16:45:08.542Z,119.00
2023-02-19T16:47:40.565Z,126.40
2023-02-19T16:50:14.836Z,118.80
2023-02-19T16:53:03.108Z,123.60
2023-02-19T16:55:34.814Z,120.20
2023-02-19T16:58:01.607Z,123.80
2023-02-19T17:00:31.157Z,119.50
2023-02-19T17:03:02.993Z,119.80
2023-02-19T17:05:32.642Z,113.80
2023-02-19T17:07:59.368Z,114.20
2023-02-19T17:10:28.071Z,122.60
2023-02-19T17:12:56.100Z,122.80
2023-02-19T17:15:23.514Z,122.80
2023-02-19T17:17:50.249Z,116.30
2023-02-19T17:20:20.697Z,114.40
2023-02-19T17:22:47.473Z,108.30
2023-02-19T17:25:14.340Z,113.00
2023-02-19T17:27:41.334Z,116.70
2023-02-19T17:30:20.454Z,116.90
2023-02-19T17:32:47.137Z,115.20
2023-02-19T17:35:13.872Z,117.30
2023-02-19T17:37:40.612Z,119.80
2023-02-19T17:40:33.253Z,124.60
2023-02-19T17:43:01.217Z,127.10
2023-02-19T17:45:28.247Z,124.30
2023-02-19T17:47:54.999Z,116.80
2023-02-19T17:50:25.615Z,107.90
2023-02-19T17:52:52.660Z,112.70
2023-02-19T17:55:19.460Z,101.40
2023-02-19T17:57:49.762Z,115.10
2023-02-19T18:00:25.197Z,114.10
2023-02-19T18:02:51.924Z,116.00
2023-02-19T18:05:19.193Z,114.20
2023-02-19T18:07:47.462Z,106.70
2023-02-19T18:10:16.392Z,114.50
2023-02-19T18:12:43.298Z,100.80
2023-02-19T18:15:17.350Z,108.20
2023-02-19T18:17:44.565Z,115.80
2023-02-19T18:20:20.670Z,106.80
2023-02-19T18:22:47.721Z,107.00
2023-02-19T18:25:15.852Z,109.40
2023-02-19T18:27:42.783Z,107.40
2023-02-19T18:30:10.257Z,105.60
2023-02-19T18:32:37.498Z,115.30
2023-02-19T18:35:05.308Z,110.20
2023-02-19T18:37:33.794Z,108.40
2023-02-19T18:40:01.200Z,121.70
2023-02-19T18:42:28.726Z,111.90
2023-02-19T18:44:56.149Z,118.70
2023-02-19T18:47:25.428Z,111.30
2023-02-19T18:49:54.759Z,115.90
2023-02-19T18:52:24.860Z,121.00
2023-02-19T18:54:53.571Z,115.40
2023-02-19T18:57:22.315Z,108.40
2023-02-19T18:59:49.210Z,109.40
2023-02-19T19:02:16.184Z,107.60
2023-02-19T19:04:43.415Z,109.00
2023-02-19T19:07:10.834Z,108.90
2023-02-19T19:09:37.625Z,108.50
2023-02-19T19:12:04.803Z,108.10
2023-02-19T19:14:31.560Z,112.20
2023-02-19T19:16:58.286Z,110.90
2023-02-19T19:19:25.295Z,111.90
2023-02-19T19:21:53.871Z,108.10
2023-02-19T19:24:23.060Z,108.20
2023-02-19T19:26:50.830Z,111.00
2023-02-19T19:29:20.144Z,108.20
2023-02-19T19:31:47.089Z,121.30
2023-02-19T19:34:14.757Z,105.20
2023-02-19T19:36:41.650Z,114.00
2023-02-19T19:39:09.651Z,118.50
2023-02-19T19:41:36.965Z,112.10
2023-02-19T19:44:08.148Z,115.30
2023-02-19T19:46:35.197Z,108.80
2023-02-19T19:49:02.081Z,110.30
2023-02-19T19:51:33.828Z,113.10
2023-02-19T19:54:03.129Z,106.00
2023-02-19T19:56:30.702Z,114.10
2023-02-19T19:58:57.393Z,107.00
2023-02-19T20:01:24.185Z,108.30
2023-02-19T20:03:51.272Z,105.80
2023-02-19T20:06:30.780Z,116.00
2023-02-19T20:08:58.311Z,122.50
2023-02-19T20:11:26.809Z,115.90
2023-02-19T20:13:53.820Z,109.40
2023-02-19T20:16:25.387Z,113.20
2023-02-19T20:18:54.479Z,113.80
2023-02-19T20:21:21.380Z,108.30
2023-02-19T20:23:48.213Z,110.40
2023-02-19T20:26:22.042Z,109.50
2023-02-19T20:28:49.065Z,107.80
2023-02-19T20:31:16.040Z,114.10
2023-02-19T20:33:42.886Z,115.00
2023-02-19T20:36:09.802Z,109.90
2023-02-19T20:38:37.001Z,110.30
2023-02-19T20:41:03.957Z,107.70
2023-02-19T20:43:31.113Z,113.20
2023-02-19T20:45:57.896Z,104.30
2023-02-19T20:48:24.560Z,106.30
2023-02-19T20:50:51.446Z,111.70
2023-02-19T20:53:18.177Z,110.10
2023-02-19T20:55:45.124Z,109.10
2023-02-19T20:58:12.106Z,108.30
2023-02-19T21:00:38.766Z,108.70
2023-02-19T21:03:08.959Z,122.00
2023-02-19T21:05:38.646Z,115.90
2023-02-19T21:08:05.883Z,110.10
2023-02-19T21:10:32.682Z,108.90
2023-02-19T21:12:59.472Z,114.30
2023-02-19T21:15:27.825Z,119.00
2023-02-19T21:17:54.495Z,120.60
2023-02-19T21:20:21.268Z,111.30
2023-02-19T21:22:48.141Z,116.50
2023-02-19T21:25:14.969Z,111.00
2023-02-19T21:27:42.113Z,118.10
2023-02-19T21:30:09.335Z,120.40
2023-02-19T21:32:36.072Z,117.30
2023-02-19T21:35:03.008Z,116.80
2023-02-19T21:37:29.959Z,122.80
2023-02-19T21:40:00.698Z,130.50
2023-02-19T21:42:27.594Z,128.10
2023-02-19T21:44:54.503Z,128.00
2023-02-19T21:47:21.241Z,125.20
2023-02-19T21:49:48.150Z,116.70
2023-02-19T21:52:15.179Z,126.30
2023-02-19T21:54:41.986Z,117.60
2023-02-19T21:57:09.542Z,123.20
2023-02-19T21:59:36.335Z,120.00
2023-02-19T22:02:03.354Z,121.80
2023-02-19T22:04:30.118Z,119.60
2023-02-19T22:06:57.637Z,117.50
2023-02-19T22:09:24.681Z,117.70
2023-02-19T22:11:51.717Z,120.70
2023-02-19T22:14:19.491Z,120.10
2023-02-19T22:16:46.985Z,122.40
2023-02-19T22:19:14.937Z,117.10
2023-02-19T22:21:44.553Z,108.80
2023-02-19T22:24:17.247Z,113.90
2023-02-19T22:26:45.800Z,116.20
2023-02-19T22:29:14.564Z,120.90
2023-02-19T22:31:41.840Z,121.80
2023-02-19T22:34:09.321Z,116.90
2023-02-19T22:36:40.339Z,115.30
2023-02-19T22:39:10.440Z,117.90
2023-02-19T22:41:42.844Z,113.90
2023-02-19T22:44:11.416Z,106.40
2023-02-19T22:46:38.279Z,107.80
2023-02-19T22:49:07.050Z,112.10
2023-02-19T22:51:35.646Z,108.50
2023-02-19T22:54:02.756Z,118.60
2023-02-19T22:56:29.603Z,105.30
2023-02-19T22:58:57.412Z,108.90
2023-02-19T23:01:25.156Z,106.20
2023-02-19T23:04:00.207Z,113.00
2023-02-19T23:06:30.804Z,108.80
2023-02-19T23:08:59.320Z,112.70
2023-02-19T23:11:29.684Z,112.10
2023-02-19T23:13:56.914Z,107.90
2023-02-19T23:16:23.799Z,111.50
2023-02-19T23:18:50.820Z,119.10
2023-02-19T23:21:19.068Z,111.80
2023-02-19T23:23:46.516Z,115.50
2023-02-19T23:26:14.578Z,113.70
2023-02-19T23:28:42.871Z,113.30
2023-02-19T23:31:10.566Z,106.80
2023-02-19T23:33:37.377Z,108.70
2023-02-19T23:36:05.342Z,108.90
2023-02-19T23:38:32.099Z,111.50
2023-02-19T23:40:59.211Z,114.20
2023-02-19T23:43:25.985Z,121.00
2023-02-19T23:45:52.887Z,113.60
2023-02-19T23:48:19.584Z,109.50
2023-02-19T23:50:46.314Z,110.60
2023-02-19T23:53:13.007Z,111.70
2023-02-19T23:55:39.759Z,112.60
2023-02-19T23:58:06.529Z,113.40
